Time;durP1;ratioP1;P1;durP2;ratioP2;P2;SDS_P1;SDS_P2;PMS_P1;PMS_P2;Temp;Humidity;BMP_temperature;BMP_pressure;BME280_temperature;BME280_humidity;BME280_pressure;Samples;Min_cycle;Max_cycle;Signal;HPM_P1;HPM_P2
2023/06/28 00:00:32;;;;;;;0.20;0.20;;;16.20;98.20;;;;;;5051026;28;20044;-84
2023/06/28 00:02:58;;;;;;;0.20;0.20;;;16.20;98.30;;;;;;5052709;28;20048;-80
2023/06/28 00:05:23;;;;;;;0.10;0.10;;;16.20;98.30;;;;;;5050793;28;20045;-80
2023/06/28 00:07:49;;;;;;;0.20;0.20;;;16.20;98.40;;;;;;5049985;28;20068;-81
2023/06/28 00:10:15;;;;;;;0.10;0.10;;;16.20;98.40;;;;;;5040471;28;20042;-81
2023/06/28 00:12:41;;;;;;;0.20;0.20;;;16.20;98.50;;;;;;5043806;28;20057;-81
2023/06/28 00:15:07;;;;;;;0.20;0.20;;;16.20;98.50;;;;;;5048412;28;20037;-80
2023/06/28 00:17:33;;;;;;;0.20;0.20;;;16.20;98.50;;;;;;5049561;28;20068;-80
2023/06/28 00:20:06;;;;;;;0.20;0.20;;;16.20;98.60;;;;;;5049477;28;20123;-81
2023/06/28 00:22:32;;;;;;;0.10;0.10;;;16.20;98.70;;;;;;5049675;28;20045;-80
2023/06/28 00:24:59;;;;;;;0.20;0.20;;;16.20;98.70;;;;;;5049431;28;20098;-80
2023/06/28 00:27:29;;;;;;;0.20;0.20;;;16.20;98.80;;;;;;5048881;28;20135;-81
2023/06/28 00:29:57;;;;;;;0.20;0.20;;;16.20;98.80;;;;;;5049321;28;20095;-80
2023/06/28 00:32:24;;;;;;;0.20;0.20;;;16.20;98.80;;;;;;5050340;28;20068;-81
2023/06/28 00:34:50;;;;;;;0.10;0.10;;;16.20;98.90;;;;;;5049067;28;20041;-80
2023/06/28 00:37:16;;;;;;;0.20;0.20;;;16.20;98.90;;;;;;5050149;28;20123;-79
2023/06/28 00:39:42;;;;;;;0.20;0.20;;;16.20;98.90;;;;;;5049263;28;20025;-80
2023/06/28 00:42:07;;;;;;;0.13;0.13;;;16.10;99.00;;;;;;5053413;28;20044;-81
2023/06/28 00:44:33;;;;;;;0.20;0.20;;;16.10;99.00;;;;;;5050150;28;20060;-80
2023/06/28 00:47:01;;;;;;;0.20;0.20;;;16.10;99.10;;;;;;5044489;28;20416;-80
2023/06/28 00:49:31;;;;;;;0.20;0.20;;;16.10;99.20;;;;;;5044012;28;20567;-81
2023/06/28 00:51:58;;;;;;;0.20;0.20;;;16.10;99.20;;;;;;5048001;28;20044;-81
2023/06/28 00:54:24;;;;;;;0.20;0.20;;;16.10;99.20;;;;;;5049307;28;20481;-81
2023/06/28 00:56:51;;;;;;;0.10;0.10;;;16.00;99.30;;;;;;5049139;28;20049;-81
2023/06/28 00:59:17;;;;;;;0.20;0.20;;;16.10;99.30;;;;;;5047580;28;20055;-80
2023/06/28 01:01:43;;;;;;;0.20;0.20;;;16.10;99.40;;;;;;5046063;28;20504;-80
2023/06/28 01:04:10;;;;;;;0.20;0.20;;;16.10;99.40;;;;;;5047683;28;20036;-81
2023/06/28 01:06:40;;;;;;;0.20;0.20;;;16.00;99.40;;;;;;5049855;28;20045;-80
2023/06/28 01:09:11;;;;;;;0.20;0.20;;;16.00;99.50;;;;;;5043112;28;20469;-81
2023/06/28 01:11:38;;;;;;;0.10;0.10;;;16.10;99.50;;;;;;5048715;28;20049;-80
2023/06/28 01:14:06;;;;;;;0.20;0.20;;;16.00;99.50;;;;;;5046046;28;20036;-80
2023/06/28 01:16:33;;;;;;;0.10;0.10;;;16.10;99.60;;;;;;5047260;28;20098;-80
2023/06/28 01:19:00;;;;;;;0.10;0.10;;;16.10;99.60;;;;;;5051506;28;20076;-80
2023/06/28 01:21:30;;;;;;;0.10;0.10;;;16.10;99.60;;;;;;5051305;28;20052;-80
2023/06/28 01:23:55;;;;;;;0.20;0.20;;;16.00;99.70;;;;;;5043598;28;20489;-81
2023/06/28 01:26:22;;;;;;;0.10;0.10;;;16.00;99.80;;;;;;5049933;28;20048;-80
2023/06/28 01:28:49;;;;;;;0.10;0.10;;;16.10;99.80;;;;;;5045603;28;20044;-80
2023/06/28 01:31:16;;;;;;;0.20;0.20;;;16.00;99.80;;;;;;5048117;28;20053;-81
2023/06/28 01:33:42;;;;;;;0.20;0.20;;;16.00;99.80;;;;;;5048673;28;20041;-80
2023/06/28 01:36:09;;;;;;;0.20;0.20;;;16.00;99.90;;;;;;5030870;28;20190;-80
2023/06/28 01:38:36;;;;;;;0.20;0.20;;;16.10;99.90;;;;;;5024656;28;20053;-80
2023/06/28 01:41:03;;;;;;;0.20;0.20;;;16.00;99.90;;;;;;5032297;28;20285;-80
2023/06/28 01:43:29;;;;;;;0.20;0.20;;;16.10;99.90;;;;;;5030375;28;20053;-80
2023/06/28 01:45:54;;;;;;;0.20;0.20;;;16.10;99.90;;;;;;5048179;28;20035;-80
2023/06/28 01:48:20;;;;;;;0.20;0.20;;;16.10;99.90;;;;;;5047518;28;20120;-80
2023/06/28 01:50:46;;;;;;;0.15;0.15;;;16.00;99.90;;;;;;5031653;28;20056;-80
2023/06/28 01:53:11;;;;;;;0.20;0.20;;;16.00;99.90;;;;;;5048123;28;20044;-80
2023/06/28 01:55:37;;;;;;;0.20;0.20;;;16.00;99.90;;;;;;5033406;28;20045;-80
2023/06/28 01:58:03;;;;;;;0.20;0.20;;;16.00;99.90;;;;;;5029123;28;20033;-80
2023/06/28 02:00:29;;;;;;;0.20;0.20;;;16.00;99.90;;;;;;5030814;28;20146;-80
2023/06/28 02:02:54;;;;;;;0.20;0.20;;;16.00;99.90;;;;;;5049277;28;20523;-80
2023/06/28 02:05:21;;;;;;;0.20;0.20;;;16.10;99.90;;;;;;5029434;28;20635;-80
2023/06/28 02:07:46;;;;;;;0.10;0.10;;;16.00;99.90;;;;;;5046547;28;20067;-80
2023/06/28 02:10:12;;;;;;;0.17;0.17;;;16.00;99.90;;;;;;5030959;28;20994;-80
2023/06/28 02:12:38;;;;;;;0.10;0.10;;;16.00;99.90;;;;;;5030905;28;20053;-80
2023/06/28 02:15:05;;;;;;;0.20;0.20;;;16.00;99.90;;;;;;5028805;28;20535;-81
2023/06/28 02:17:31;;;;;;;0.13;0.13;;;16.00;99.90;;;;;;5045004;28;20062;-80
2023/06/28 02:19:57;;;;;;;0.20;0.20;;;16.00;99.90;;;;;;5030485;28;20128;-80
2023/06/28 02:22:26;;;;;;;0.20;0.20;;;16.00;99.90;;;;;;5031657;28;20048;-80
2023/06/28 02:24:51;;;;;;;0.20;0.20;;;16.00;99.90;;;;;;5049375;28;20090;-80
2023/06/28 02:27:17;;;;;;;0.10;0.10;;;16.10;99.90;;;;;;5031461;28;20041;-80
2023/06/28 02:29:43;;;;;;;0.10;0.10;;;16.10;99.90;;;;;;5049296;28;20055;-80
2023/06/28 02:32:09;;;;;;;0.20;0.20;;;16.00;99.90;;;;;;5040951;28;20102;-80
2023/06/28 02:34:35;;;;;;;0.15;0.15;;;16.10;99.90;;;;;;5048760;28;20053;-80
2023/06/28 02:37:01;;;;;;;0.20;0.20;;;16.10;99.90;;;;;;5053834;28;20087;-80
2023/06/28 02:39:27;;;;;;;0.20;0.20;;;16.10;99.90;;;;;;5046439;28;20045;-80
2023/06/28 02:41:52;;;;;;;0.10;0.10;;;16.10;99.90;;;;;;5046395;28;20040;-80
2023/06/28 02:44:18;;;;;;;0.20;0.20;;;16.10;99.90;;;;;;5041493;28;20476;-80
2023/06/28 02:46:44;;;;;;;0.20;0.20;;;16.10;99.90;;;;;;5049242;28;20049;-80
2023/06/28 02:49:10;;;;;;;0.20;0.20;;;16.10;99.90;;;;;;5043753;28;20504;-80
2023/06/28 02:51:36;;;;;;;0.20;0.20;;;16.10;99.90;;;;;;5042085;28;20044;-80
2023/06/28 02:54:01;;;;;;;0.20;0.20;;;16.10;99.90;;;;;;5046980;28;20444;-80
2023/06/28 02:56:28;;;;;;;0.20;0.20;;;16.10;99.90;;;;;;5048799;28;20044;-79
2023/06/28 02:58:54;;;;;;;0.13;0.13;;;16.10;99.90;;;;;;5044107;28;20484;-80
2023/06/28 03:01:22;;;;;;;0.20;0.20;;;16.10;99.90;;;;;;5049314;28;20084;-80
2023/06/28 03:03:48;;;;;;;0.20;0.20;;;16.10;99.90;;;;;;5047999;28;20045;-79
2023/06/28 03:06:17;;;;;;;0.10;0.10;;;16.10;99.90;;;;;;5047903;28;20566;-80
2023/06/28 03:08:43;;;;;;;0.20;0.20;;;16.10;99.90;;;;;;5046399;28;20923;-80
2023/06/28 03:11:09;;;;;;;0.20;0.20;;;16.00;99.90;;;;;;5048806;28;20135;-80
2023/06/28 03:13:34;;;;;;;0.10;0.10;;;16.10;99.90;;;;;;5047328;28;20040;-79
2023/06/28 03:16:00;;;;;;;0.20;0.20;;;16.10;99.90;;;;;;5047912;28;20060;-80
2023/06/28 03:18:26;;;;;;;0.20;0.20;;;16.10;99.90;;;;;;5048719;28;20037;-80
2023/06/28 03:20:52;;;;;;;0.20;0.20;;;16.10;99.90;;;;;;5051632;28;20041;-80
2023/06/28 03:23:18;;;;;;;0.20;0.20;;;16.10;99.90;;;;;;5048650;28;20041;-80
2023/06/28 03:25:44;;;;;;;0.20;0.20;;;16.10;99.90;;;;;;5053066;28;20089;-80
2023/06/28 03:28:11;;;;;;;0.20;0.20;;;16.10;99.90;;;;;;5049331;28;20452;-80
2023/06/28 03:30:37;;;;;;;0.20;0.20;;;16.00;99.90;;;;;;5050497;28;20094;-80
2023/06/28 03:33:03;;;;;;;0.20;0.20;;;16.10;99.90;;;;;;5052764;28;20049;-80
2023/06/28 03:35:29;;;;;;;0.10;0.10;;;16.10;99.90;;;;;;5035111;28;20048;-81
2023/06/28 03:37:55;;;;;;;0.20;0.20;;;16.10;99.90;;;;;;5032615;28;20055;-80
2023/06/28 03:40:22;;;;;;;0.20;0.20;;;16.10;99.90;;;;;;5034758;28;20036;-80
2023/06/28 03:42:48;;;;;;;0.20;0.20;;;16.10;99.90;;;;;;5050950;28;20035;-80
2023/06/28 03:45:17;;;;;;;0.20;0.20;;;16.10;99.90;;;;;;5051691;28;20039;-81
2023/06/28 03:47:43;;;;;;;0.20;0.20;;;16.10;99.90;;;;;;5034586;28;20052;-81
2023/06/28 03:50:09;;;;;;;0.20;0.20;;;16.10;99.90;;;;;;5027930;28;20051;-80
2023/06/28 03:52:37;;;;;;;0.20;0.20;;;16.10;99.90;;;;;;5049805;28;20025;-81
2023/06/28 03:55:04;;;;;;;0.20;0.20;;;16.00;99.90;;;;;;5032771;28;20053;-80
2023/06/28 03:57:29;;;;;;;0.20;0.20;;;16.00;99.90;;;;;;5034357;28;20362;-80
2023/06/28 03:59:56;;;;;;;0.20;0.20;;;16.10;99.90;;;;;;5051243;28;20079;-80
2023/06/28 04:02:21;;;;;;;0.20;0.20;;;16.10;99.90;;;;;;5034287;28;20053;-80
2023/06/28 04:04:47;;;;;;;0.20;0.20;;;16.00;99.90;;;;;;5034267;28;20041;-82
2023/06/28 04:07:13;;;;;;;0.20;0.20;;;16.00;99.90;;;;;;5032558;28;20094;-80
2023/06/28 04:09:39;;;;;;;0.20;0.20;;;16.00;99.90;;;;;;5032811;28;20037;-83
2023/06/28 04:12:06;;;;;;;0.10;0.10;;;16.00;99.90;;;;;;5050551;28;20213;-80
2023/06/28 04:14:31;;;;;;;0.20;0.20;;;16.00;99.90;;;;;;5051942;28;20089;-81
2023/06/28 04:16:57;;;;;;;0.10;0.10;;;16.00;99.90;;;;;;5046328;28;20116;-81
2023/06/28 04:19:22;;;;;;;0.20;0.20;;;16.00;99.90;;;;;;5032731;28;20033;-80
2023/06/28 04:21:48;;;;;;;0.10;0.10;;;16.00;99.90;;;;;;5049744;28;20559;-81
2023/06/28 04:24:14;;;;;;;0.10;0.10;;;16.00;99.90;;;;;;5032194;28;20128;-81
2023/06/28 04:26:40;;;;;;;0.20;0.20;;;15.90;99.90;;;;;;5030685;28;20440;-80
2023/06/28 04:29:05;;;;;;;0.20;0.20;;;15.90;99.90;;;;;;5048619;28;20147;-81
2023/06/28 04:31:31;;;;;;;0.20;0.20;;;15.90;99.90;;;;;;5037402;28;20064;-81
2023/06/28 04:33:57;;;;;;;0.20;0.20;;;16.00;99.90;;;;;;5049823;28;20056;-81
2023/06/28 04:36:25;;;;;;;0.20;0.20;;;15.90;99.90;;;;;;5050315;28;20090;-81
2023/06/28 04:38:52;;;;;;;0.20;0.20;;;16.00;99.90;;;;;;5050335;28;20037;-80
2023/06/28 04:41:19;;;;;;;0.20;0.20;;;16.00;99.90;;;;;;5043491;28;20045;-80
2023/06/28 04:43:46;;;;;;;0.10;0.10;;;16.00;99.90;;;;;;5043605;28;20076;-80
2023/06/28 04:46:11;;;;;;;0.20;0.20;;;16.00;99.90;;;;;;5047503;28;20053;-80
2023/06/28 04:48:42;;;;;;;0.20;0.20;;;15.90;99.90;;;;;;5050868;28;20044;-80
2023/06/28 04:51:08;;;;;;;0.10;0.10;;;16.00;99.90;;;;;;5046897;28;20045;-80
2023/06/28 04:53:33;;;;;;;0.20;0.20;;;16.00;99.90;;;;;;5029416;28;20052;-80
2023/06/28 04:56:02;;;;;;;0.20;0.20;;;16.00;99.90;;;;;;5045470;28;20040;-80
2023/06/28 04:58:27;;;;;;;0.20;0.20;;;16.00;99.90;;;;;;5050965;28;20036;-81
2023/06/28 05:00:56;;;;;;;0.20;0.20;;;16.00;99.90;;;;;;5048676;28;20037;-79
2023/06/28 05:03:26;;;;;;;0.20;0.20;;;16.00;99.90;;;;;;5048602;28;20073;-80
2023/06/28 05:05:53;;;;;;;0.20;0.20;;;15.90;99.90;;;;;;5048955;28;20041;-80
2023/06/28 05:08:19;;;;;;;0.20;0.20;;;16.00;99.90;;;;;;5049531;28;20056;-80
2023/06/28 05:10:45;;;;;;;0.20;0.20;;;15.90;99.90;;;;;;5049831;28;20041;-80
2023/06/28 05:13:10;;;;;;;0.20;0.20;;;16.00;99.90;;;;;;5048817;28;20374;-80
2023/06/28 05:15:36;;;;;;;0.20;0.20;;;16.00;99.90;;;;;;5048957;28;20041;-81
2023/06/28 05:18:02;;;;;;;0.20;0.20;;;15.90;99.90;;;;;;5048843;28;20084;-79
2023/06/28 05:20:29;;;;;;;0.20;0.20;;;15.90;99.90;;;;;;5049411;28;20045;-80
2023/06/28 05:23:11;;;;;;;0.20;0.20;;;16.00;99.90;;;;;;5049092;28;20068;-80
2023/06/28 05:25:41;;;;;;;0.20;0.20;;;15.90;99.90;;;;;;5047995;28;20572;-80
2023/06/28 05:28:08;;;;;;;0.20;0.20;;;15.90;99.90;;;;;;5049252;28;20052;-80
2023/06/28 05:30:34;;;;;;;0.20;0.20;;;15.90;99.90;;;;;;5049572;28;20075;-80
2023/06/28 05:33:02;;;;;;;0.20;0.20;;;15.90;99.90;;;;;;5044007;28;20037;-80
2023/06/28 05:35:35;;;;;;;0.20;0.20;;;15.90;99.90;;;;;;5049385;28;20072;-80
2023/06/28 05:38:02;;;;;;;0.20;0.20;;;15.90;99.90;;;;;;5048085;28;20076;-80
2023/06/28 05:40:29;;;;;;;0.17;0.17;;;15.90;99.90;;;;;;5028488;28;20055;-80
2023/06/28 05:42:55;;;;;;;0.20;0.20;;;15.90;99.90;;;;;;5048790;28;20044;-81
2023/06/28 05:45:25;;;;;;;0.20;0.20;;;16.00;99.90;;;;;;5024096;28;20045;-81
2023/06/28 05:47:50;;;;;;;0.20;0.20;;;16.00;99.90;;;;;;5027756;28;20045;-82
2023/06/28 05:50:17;;;;;;;0.20;0.20;;;16.00;99.90;;;;;;5031485;28;20504;-82
2023/06/28 05:52:44;;;;;;;0.20;0.20;;;16.10;99.90;;;;;;5041544;28;20083;-83
2023/06/28 05:55:09;;;;;;;0.15;0.15;;;16.10;99.90;;;;;;5028089;28;20481;-83
2023/06/28 05:57:37;;;;;;;0.20;0.20;;;16.10;99.90;;;;;;5028831;28;20076;-82
2023/06/28 06:00:04;;;;;;;0.20;0.20;;;16.20;99.90;;;;;;5030042;28;20041;-83
2023/06/28 06:02:30;;;;;;;0.10;0.10;;;16.20;99.90;;;;;;5047552;28;20052;-85
2023/06/28 06:04:55;;;;;;;0.20;0.20;;;16.20;99.90;;;;;;5047036;28;20052;-84
2023/06/28 06:07:21;;;;;;;0.17;0.17;;;16.20;99.90;;;;;;5030525;28;20106;-83
2023/06/28 06:09:47;;;;;;;0.15;0.15;;;16.20;99.90;;;;;;5046490;28;20521;-84
2023/06/28 06:12:12;;;;;;;0.20;0.20;;;16.20;99.90;;;;;;5042133;28;20056;-84
2023/06/28 06:14:38;;;;;;;0.20;0.20;;;16.20;99.90;;;;;;5026851;28;20516;-83
2023/06/28 06:17:04;;;;;;;0.20;0.20;;;16.30;99.90;;;;;;5025821;28;20440;-83
2023/06/28 06:19:29;;;;;;;0.20;0.20;;;16.20;99.90;;;;;;5049566;28;20132;-83
2023/06/28 06:21:55;;;;;;;0.20;0.20;;;16.30;99.90;;;;;;5051718;28;20568;-83
2023/06/28 06:24:21;;;;;;;0.20;0.20;;;16.30;99.90;;;;;;5035145;28;20048;-80
2023/06/28 06:26:46;;;;;;;0.20;0.20;;;16.40;99.90;;;;;;5031018;28;20091;-80
2023/06/28 06:29:12;;;;;;;0.20;0.20;;;16.30;99.90;;;;;;5030164;28;20041;-80
2023/06/28 06:31:38;;;;;;;0.20;0.20;;;16.30;99.90;;;;;;5046113;28;20060;-81
2023/06/28 06:34:03;;;;;;;0.20;0.20;;;16.30;99.90;;;;;;5045793;28;20827;-80
2023/06/28 06:36:29;;;;;;;0.20;0.20;;;16.30;99.90;;;;;;5039817;28;20049;-81
2023/06/28 06:38:59;;;;;;;0.20;0.20;;;16.30;99.90;;;;;;5028255;28;20034;-81
2023/06/28 06:41:25;;;;;;;0.17;0.17;;;16.30;99.90;;;;;;5048147;28;20400;-81
2023/06/28 06:43:51;;;;;;;0.20;0.20;;;16.30;99.90;;;;;;5022360;28;20051;-81
2023/06/28 06:46:20;;;;;;;0.15;0.15;;;16.30;99.90;;;;;;5046655;28;20053;-80
2023/06/28 06:48:48;;;;;;;0.20;0.20;;;16.30;99.90;;;;;;5046079;28;20045;-81
2023/06/28 06:51:15;;;;;;;0.20;0.20;;;16.30;99.90;;;;;;5031508;28;20473;-80
2023/06/28 06:53:41;;;;;;;0.20;0.20;;;16.30;99.90;;;;;;5024270;28;20485;-81
2023/06/28 06:56:06;;;;;;;0.20;0.20;;;16.30;99.90;;;;;;5036618;28;20056;-81
2023/06/28 06:58:33;;;;;;;0.20;0.20;;;16.30;99.90;;;;;;5036452;28;20041;-80
2023/06/28 07:00:58;;;;;;;0.20;0.20;;;16.30;99.90;;;;;;5052364;28;20052;-80
2023/06/28 07:03:24;;;;;;;0.13;0.13;;;16.40;99.90;;;;;;5034835;28;20047;-81
2023/06/28 07:05:50;;;;;;;0.20;0.20;;;16.40;99.90;;;;;;5050971;28;20044;-79
2023/06/28 07:08:17;;;;;;;0.20;0.20;;;16.40;99.90;;;;;;5033576;28;20045;-78
2023/06/28 07:10:42;;;;;;;0.15;0.15;;;16.40;99.90;;;;;;5022348;28;20088;-79
2023/06/28 07:13:10;;;;;;;0.20;0.20;;;16.40;99.90;;;;;;5032027;28;20092;-80
2023/06/28 07:15:35;;;;;;;0.20;0.20;;;16.40;99.90;;;;;;5034520;28;20064;-80
2023/06/28 07:18:01;;;;;;;0.10;0.10;;;16.40;99.90;;;;;;5045781;28;20164;-80
2023/06/28 07:20:27;;;;;;;0.20;0.20;;;16.50;99.90;;;;;;5035384;28;20382;-79
2023/06/28 07:22:52;;;;;;;0.20;0.20;;;16.40;99.90;;;;;;5033890;28;20135;-78
2023/06/28 07:25:18;;;;;;;0.10;0.10;;;16.40;99.90;;;;;;5051129;28;20041;-78
2023/06/28 07:27:44;;;;;;;0.20;0.20;;;16.40;99.90;;;;;;5034029;28;20123;-79
2023/06/28 07:30:09;;;;;;;0.20;0.20;;;16.40;99.90;;;;;;5032549;28;20048;-78
2023/06/28 07:32:35;;;;;;;0.10;0.10;;;16.40;99.90;;;;;;5051909;28;20140;-78
2023/06/28 07:35:01;;;;;;;0.20;0.20;;;16.50;99.90;;;;;;5034944;28;20152;-77
2023/06/28 07:37:27;;;;;;;0.20;0.20;;;16.50;99.90;;;;;;5032286;28;20049;-78
2023/06/28 07:39:52;;;;;;;0.20;0.20;;;16.50;99.90;;;;;;5034467;28;20052;-78
2023/06/28 07:42:21;;;;;;;0.17;0.17;;;16.50;99.90;;;;;;5032351;28;20060;-77
2023/06/28 07:44:47;;;;;;;0.20;0.20;;;16.50;99.90;;;;;;5050675;28;20492;-78
2023/06/28 07:47:13;;;;;;;0.20;0.20;;;16.60;99.90;;;;;;5033329;28;20048;-78
2023/06/28 07:49:38;;;;;;;0.20;0.20;;;16.50;99.90;;;;;;5033900;28;20506;-77
2023/06/28 07:52:05;;;;;;;0.20;0.20;;;16.60;99.90;;;;;;5048807;28;20052;-78
2023/06/28 07:54:31;;;;;;;0.20;0.20;;;16.50;99.90;;;;;;5044628;28;20125;-78
2023/06/28 07:56:56;;;;;;;0.20;0.20;;;16.60;99.90;;;;;;5038530;28;20135;-75
2023/06/28 07:59:22;;;;;;;0.20;0.20;;;16.60;99.90;;;;;;5047556;28;20041;-77
2023/06/28 08:01:49;;;;;;;0.20;0.20;;;16.60;99.90;;;;;;5038932;28;20148;-77
2023/06/28 08:04:20;;;;;;;0.20;0.20;;;16.60;99.90;;;;;;5026469;28;20045;-77
2023/06/28 08:06:46;;;;;;;0.20;0.20;;;16.60;99.90;;;;;;5048400;28;20076;-78
2023/06/28 08:09:12;;;;;;;0.10;0.10;;;16.60;99.90;;;;;;5051410;28;20040;-77
2023/06/28 08:11:39;;;;;;;0.20;0.20;;;16.60;99.90;;;;;;5051889;28;20132;-77
2023/06/28 08:14:05;;;;;;;0.20;0.20;;;16.60;99.90;;;;;;5033747;28;20480;-77
2023/06/28 08:16:31;;;;;;;0.20;0.20;;;16.60;99.90;;;;;;5034389;28;20055;-77
2023/06/28 08:18:57;;;;;;;0.10;0.10;;;16.60;99.90;;;;;;5051130;28;20072;-77
2023/06/28 08:21:22;;;;;;;0.10;0.10;;;16.70;99.90;;;;;;5034377;28;20448;-77
2023/06/28 08:23:48;;;;;;;0.10;0.10;;;16.70;99.90;;;;;;5027934;28;20041;-77
2023/06/28 08:26:14;;;;;;;0.20;0.20;;;16.70;99.90;;;;;;5031738;28;20056;-77
2023/06/28 08:28:40;;;;;;;0.20;0.20;;;16.70;99.90;;;;;;5050736;28;20388;-76
2023/06/28 08:31:05;;;;;;;0.20;0.20;;;16.80;99.90;;;;;;5035650;28;20080;-77
2023/06/28 08:33:31;;;;;;;0.20;0.20;;;16.80;99.90;;;;;;5049834;28;20077;-77
2023/06/28 08:35:57;;;;;;;0.20;0.20;;;16.90;99.90;;;;;;5047679;28;20041;-78
2023/06/28 08:38:23;;;;;;;0.10;0.10;;;16.90;99.90;;;;;;5049129;28;20183;-78
2023/06/28 08:40:48;;;;;;;0.20;0.20;;;16.90;99.90;;;;;;5051014;28;20048;-76
2023/06/28 08:43:16;;;;;;;0.20;0.20;;;17.00;99.90;;;;;;5045671;28;20080;-76
2023/06/28 08:45:44;;;;;;;0.15;0.15;;;17.00;99.90;;;;;;5045342;28;20393;-77
2023/06/28 08:48:10;;;;;;;0.20;0.20;;;17.00;99.90;;;;;;5038349;28;20044;-76
2023/06/28 08:50:39;;;;;;;0.20;0.20;;;17.00;99.90;;;;;;5048210;28;20037;-77
2023/06/28 08:53:09;;;;;;;0.20;0.20;;;17.10;99.90;;;;;;5044117;28;20066;-77
2023/06/28 08:55:39;;;;;;;0.20;0.20;;;17.10;99.90;;;;;;5041199;28;20382;-77
2023/06/28 08:58:06;;;;;;;0.20;0.20;;;17.10;99.90;;;;;;5042639;28;20098;-75
2023/06/28 09:00:32;;;;;;;0.17;0.17;;;17.10;99.90;;;;;;5043273;28;20102;-77
2023/06/28 09:02:58;;;;;;;0.20;0.20;;;17.10;99.90;;;;;;5048052;28;20507;-77
2023/06/28 09:05:24;;;;;;;0.20;0.20;;;17.10;99.90;;;;;;5050331;28;20117;-76
2023/06/28 09:07:52;;;;;;;0.20;0.20;;;17.10;99.90;;;;;;5041545;28;20040;-76
2023/06/28 09:10:18;;;;;;;0.20;0.20;;;17.10;99.90;;;;;;5047042;28;21144;-77
2023/06/28 09:12:47;;;;;;;0.20;0.20;;;17.10;99.90;;;;;;5045064;28;20049;-76
2023/06/28 09:15:16;;;;;;;0.20;0.20;;;17.10;99.90;;;;;;5036792;28;20052;-76
2023/06/28 09:17:42;;;;;;;0.20;0.20;;;17.10;99.90;;;;;;5039331;28;20443;-76
2023/06/28 09:20:18;;;;;;;0.20;0.20;;;17.20;99.90;;;;;;5037865;28;20079;-76
2023/06/28 09:22:59;;;;;;;0.20;0.20;;;17.20;99.90;;;;;;5037758;28;20489;-76
2023/06/28 09:25:31;;;;;;;0.20;0.20;;;17.10;99.90;;;;;;5046341;28;20041;-77
2023/06/28 09:27:58;;;;;;;0.20;0.20;;;17.10;99.90;;;;;;5048488;28;20041;-76
2023/06/28 09:30:24;;;;;;;0.20;0.20;;;17.10;99.90;;;;;;5047752;28;20083;-77
2023/06/28 09:32:51;;;;;;;0.20;0.20;;;17.10;99.90;;;;;;5047997;28;20142;-77
2023/06/28 09:35:21;;;;;;;0.20;0.20;;;17.20;99.90;;;;;;5047654;28;20191;-76
2023/06/28 09:37:50;;;;;;;0.17;0.17;;;17.20;99.90;;;;;;5048865;28;20043;-77
2023/06/28 09:40:17;;;;;;;0.20;0.20;;;17.20;99.90;;;;;;5043234;28;20032;-76
2023/06/28 09:42:47;;;;;;;0.15;0.15;;;17.20;99.90;;;;;;5042694;28;20053;-77
2023/06/28 09:45:27;;;;;;;0.20;0.20;;;17.30;99.90;;;;;;5040340;28;20127;-75
2023/06/28 09:48:05;;;;;;;0.10;0.10;;;17.30;99.90;;;;;;5040745;28;20037;-77
2023/06/28 09:50:39;;;;;;;0.10;0.10;;;17.30;99.90;;;;;;5046698;28;20071;-77
2023/06/28 09:53:07;;;;;;;0.20;0.20;;;17.30;99.90;;;;;;5048755;28;20045;-78
2023/06/28 09:55:33;;;;;;;0.20;0.20;;;17.30;99.90;;;;;;5044171;28;20174;-77
2023/06/28 09:58:00;;;;;;;0.20;0.20;;;17.40;99.90;;;;;;5041718;28;20313;-77
2023/06/28 10:00:31;;;;;;;0.20;0.20;;;17.40;99.90;;;;;;5047422;28;20049;-78
2023/06/28 10:02:58;;;;;;;0.20;0.20;;;17.40;99.90;;;;;;5045811;28;20493;-75
2023/06/28 10:05:25;;;;;;;0.20;0.20;;;17.40;99.90;;;;;;5044428;28;20078;-77
2023/06/28 10:07:51;;;;;;;0.10;0.10;;;17.40;99.90;;;;;;5042678;28;20602;-76
2023/06/28 10:10:18;;;;;;;0.10;0.10;;;17.40;99.90;;;;;;5047802;28;20048;-77
2023/06/28 10:12:45;;;;;;;0.20;0.20;;;17.30;99.90;;;;;;5044598;28;20049;-77
2023/06/28 10:15:15;;;;;;;0.20;0.20;;;17.30;99.90;;;;;;5047119;28;20048;-76
2023/06/28 10:17:42;;;;;;;0.10;0.10;;;17.30;99.90;;;;;;5043710;28;20053;-77
2023/06/28 10:20:08;;;;;;;0.20;0.20;;;17.30;99.90;;;;;;5045277;28;20104;-76
2023/06/28 10:22:35;;;;;;;0.20;0.20;;;17.30;99.90;;;;;;5043596;28;20038;-77
2023/06/28 10:25:05;;;;;;;0.20;0.20;;;17.40;99.90;;;;;;5040161;28;20524;-77
2023/06/28 10:27:33;;;;;;;0.13;0.13;;;17.40;99.90;;;;;;5042934;28;20052;-78
2023/06/28 10:30:00;;;;;;;0.20;0.20;;;17.40;99.90;;;;;;5046954;28;20059;-77
2023/06/28 10:32:27;;;;;;;0.10;0.10;;;17.40;99.90;;;;;;5047504;28;20402;-76
2023/06/28 10:34:55;;;;;;;0.20;0.20;;;17.40;99.90;;;;;;5030205;28;20072;-77
2023/06/28 10:37:21;;;;;;;0.20;0.20;;;17.30;99.90;;;;;;5031729;28;20053;-77
2023/06/28 10:39:50;;;;;;;0.10;0.10;;;17.30;99.90;;;;;;5030243;28;20045;-78
2023/06/28 10:42:16;;;;;;;0.20;0.20;;;17.30;99.90;;;;;;5044009;28;20179;-77
2023/06/28 10:44:55;;;;;;;0.20;0.20;;;17.20;99.90;;;;;;5026944;28;20140;-78
2023/06/28 10:47:21;;;;;;;0.20;0.20;;;17.20;99.90;;;;;;5020801;28;20040;-77
2023/06/28 10:50:06;;;;;;;0.10;0.10;;;17.20;99.90;;;;;;5046263;28;20110;-77
2023/06/28 10:52:32;;;;;;;0.20;0.20;;;17.10;99.90;;;;;;5023173;28;20060;-77
2023/06/28 10:54:58;;;;;;;0.15;0.15;;;17.10;99.90;;;;;;5020827;28;20049;-77
2023/06/28 10:57:39;;;;;;;0.10;0.10;;;17.20;99.90;;;;;;5026815;28;20095;-77
2023/06/28 11:00:09;;;;;;;0.13;0.13;;;17.10;99.90;;;;;;5047577;28;20745;-78
2023/06/28 11:03:00;;;;;;;0.20;0.20;;;17.20;99.90;;;;;;5029143;28;20043;-79
2023/06/28 11:05:52;;;;;;;0.20;0.20;;;17.20;99.90;;;;;;5047169;28;20045;-78
2023/06/28 11:08:19;;;;;;;0.20;0.20;;;17.20;99.90;;;;;;5020267;28;20044;-77
2023/06/28 11:10:46;;;;;;;0.20;0.20;;;17.30;99.90;;;;;;5046977;28;20041;-78
2023/06/28 11:13:14;;;;;;;0.20;0.20;;;17.20;99.90;;;;;;5030262;28;20064;-78
2023/06/28 11:15:44;;;;;;;0.10;0.10;;;17.30;99.90;;;;;;5046561;28;20044;-78
2023/06/28 11:18:18;;;;;;;0.20;0.20;;;17.30;99.90;;;;;;5030449;28;20139;-78
2023/06/28 11:20:58;;;;;;;0.20;0.20;;;17.30;99.90;;;;;;5030522;28;20084;-78
2023/06/28 11:23:47;;;;;;;0.10;0.10;;;17.30;99.90;;;;;;5048638;28;20060;-78
2023/06/28 11:26:18;;;;;;;0.20;0.20;;;17.30;99.90;;;;;;5031600;28;20570;-78
2023/06/28 11:28:50;;;;;;;;;;;17.30;99.90;;;;;;5028822;28;20485;-78
2023/06/28 11:31:25;;;;;;;0.20;0.20;;;17.30;99.90;;;;;;5049484;28;20030;-78
2023/06/28 11:33:56;;;;;;;0.20;0.20;;;17.30;99.90;;;;;;5030524;28;20064;-79
2023/06/28 11:36:25;;;;;;;0.10;0.10;;;17.30;99.90;;;;;;5030061;28;20438;-78
2023/06/28 11:38:51;;;;;;;0.20;0.20;;;17.40;99.90;;;;;;5028562;28;20126;-79
2023/06/28 11:41:17;;;;;;;0.20;0.20;;;17.30;99.90;;;;;;5032836;28;20040;-78
2023/06/28 11:43:47;;;;;;;0.20;0.20;;;17.40;99.90;;;;;;5030782;28;20069;-78
2023/06/28 11:46:22;;;;;;;0.20;0.20;;;17.40;99.90;;;;;;5033917;28;20049;-78
2023/06/28 11:48:51;;;;;;;0.20;0.20;;;17.40;99.90;;;;;;5031083;28;20060;-78
2023/06/28 11:51:17;;;;;;;0.10;0.10;;;17.40;99.90;;;;;;5048935;28;20039;-79
2023/06/28 11:53:48;;;;;;;0.10;0.10;;;17.30;99.90;;;;;;5031137;28;20052;-78
2023/06/28 11:56:14;;;;;;;0.17;0.17;;;17.40;99.90;;;;;;5047389;28;20116;-79
2023/06/28 11:58:40;;;;;;;0.20;0.20;;;17.40;99.90;;;;;;5022060;28;20128;-78
2023/06/28 12:01:06;;;;;;;0.20;0.20;;;17.40;99.90;;;;;;5036439;28;20052;-77
2023/06/28 12:03:36;;;;;;;0.20;0.20;;;17.40;99.90;;;;;;5029196;28;20393;-77
2023/06/28 12:06:04;;;;;;;0.10;0.10;;;17.40;99.90;;;;;;5045867;28;20047;-77
2023/06/28 12:08:34;;;;;;;0.20;0.20;;;17.40;99.90;;;;;;5040895;28;20518;-77
2023/06/28 12:11:08;;;;;;;0.20;0.20;;;17.40;99.90;;;;;;5050716;28;20053;-77
2023/06/28 12:13:34;;;;;;;0.20;0.20;;;17.40;99.90;;;;;;5030302;28;20676;-77
2023/06/28 12:16:18;;;;;;;0.20;0.20;;;17.40;99.90;;;;;;5033844;28;20080;-77
2023/06/28 12:19:01;;;;;;;0.10;0.10;;;17.40;99.90;;;;;;5032795;28;20408;-77
2023/06/28 12:21:28;;;;;;;0.13;0.13;;;17.40;99.90;;;;;;5048813;28;20045;-77
2023/06/28 12:24:22;;;;;;;0.20;0.20;;;17.50;99.90;;;;;;5033606;28;20040;-77
2023/06/28 12:26:49;;;;;;;0.20;0.20;;;17.40;99.90;;;;;;5033785;28;20514;-77
2023/06/28 12:29:21;;;;;;;0.20;0.20;;;17.50;99.90;;;;;;5030070;28;20083;-80
2023/06/28 12:31:49;;;;;;;0.20;0.20;;;17.50;99.90;;;;;;5040920;28;20041;-78
2023/06/28 12:34:22;;;;;;;0.13;0.13;;;17.60;99.90;;;;;;5050454;28;20033;-77
2023/06/28 12:36:58;;;;;;;0.20;0.20;;;17.60;99.90;;;;;;5031851;28;20060;-78
2023/06/28 12:39:25;;;;;;;0.13;0.13;;;17.60;99.90;;;;;;5046105;28;20094;-78
2023/06/28 12:42:05;;;;;;;0.20;0.20;;;17.60;99.90;;;;;;5030498;28;20175;-78
2023/06/28 12:44:45;;;;;;;0.20;0.20;;;17.70;99.90;;;;;;5031811;28;20053;-79
2023/06/28 12:47:11;;;;;;;0.20;0.20;;;17.70;99.90;;;;;;5031770;28;20128;-78
2023/06/28 12:49:37;;;;;;;0.10;0.10;;;17.60;99.90;;;;;;5049820;28;20116;-78